This is the latest recevied weather packets stored in our database for station/object SQ9PDE-13. If no packets are shown the sender has not sent any weather packets the latest 10 day(s).
| Time | Temp. | Humidity | Pressure | Rain* | Wind** | Luminosity | Snow |
|---|---|---|---|---|---|---|---|
| 1788161892 | 25.56° C | 50% | 1015.4 hPa | - | - | - | - |
| 1788161845 | 25.56° C | 50% | 1015.4 hPa | - | - | - | - |
| 1788161544 | 25° C | 54% | 1015.5 hPa | - | - | - | - |
| 1788161244 | 25° C | 54% | 1015.5 hPa | - | - | - | - |
| 1788160943 | 25.56° C | 51% | 1015.4 hPa | - | - | - | - |
| 1788160643 | 27.22° C | 48% | 1015.5 hPa | - | - | - | - |
| 1788160415 | 26.67° C | 50% | 1015.5 hPa | - | - | - | - |
| 1788160342 | 26.67° C | 50% | 1015.5 hPa | - | - | - | - |
| 1788160042 | 26.67° C | 50% | 1015.7 hPa | - | - | - | - |
| 1788159741 | 25.56° C | 53% | 1015.9 hPa | - | - | - | - |
| 1788159495 | 24.44° C | 56% | 1016 hPa | - | - | - | - |
| 1788159440 | 24.44° C | 56% | 1016 hPa | - | - | - | - |
| 1788159191 | 23.89° C | 58% | 1016.1 hPa | - | - | - | - |
| 1788158891 | 23.33° C | 60% | 1016.1 hPa | - | - | - | - |
| 1788158590 | 22.78° C | 61% | 1016.2 hPa | - | - | - | - |
| 1788158342 | 22.78° C | 62% | 1016.4 hPa | - | - | - | - |
| 1788158290 | 22.78° C | 62% | 1016.4 hPa | - | - | - | - |
| 1788158060 | 22.22° C | 64% | 1016.5 hPa | - | - | - | - |
| 1788157989 | 22.22° C | 64% | 1016.5 hPa | - | - | - | - |
| 1788157785 | 21.11° C | 65% | 1016.5 hPa | - | - | - | - |
| 1788157689 | 21.11° C | 65% | 1016.5 hPa | - | - | - | - |
| 1788157467 | 20.56° C | 65% | 1016.5 hPa | - | - | - | - |
| 1788157388 | 20.56° C | 65% | 1016.5 hPa | - | - | - | - |
| 1788157088 | 21.11° C | 65% | 1016.5 hPa | - | - | - | - |
| 1788156787 | 21.11° C | 65% | 1016.5 hPa | - | - | - | - |
* Rain since midnight (hover to see other rain measurements)
** Current wind speed in m/s (hover to see current wind gust speed)